createdAt,value
2018-07-30T00:00:00.661Z,1011.97
2018-07-30T00:01:00.733Z,1011.96
2018-07-30T00:02:00.668Z,1012.00
2018-07-30T00:03:00.671Z,1011.99
2018-07-30T00:04:00.675Z,1011.93
2018-07-30T00:05:00.677Z,1012.01
2018-07-30T00:06:00.681Z,1011.95
2018-07-30T00:07:00.681Z,1011.98
2018-07-30T00:08:00.686Z,1011.97
2018-07-30T00:09:00.694Z,1011.96
2018-07-30T00:10:00.693Z,1011.96
2018-07-30T00:11:00.696Z,1011.98
2018-07-30T00:12:00.699Z,1011.99
2018-07-30T00:13:00.702Z,1012.00
2018-07-30T00:14:00.704Z,1011.98
2018-07-30T00:15:00.712Z,1011.98
2018-07-30T00:16:00.711Z,1011.97
2018-07-30T00:17:00.715Z,1011.98
2018-07-30T00:18:00.724Z,1012.00
2018-07-30T00:19:00.754Z,1011.99
2018-07-30T00:20:00.723Z,1012.01
2018-07-30T00:21:00.728Z,1011.97
2018-07-30T00:22:00.731Z,1011.99
2018-07-30T00:23:00.737Z,1012.02
2018-07-30T00:24:00.735Z,1012.00
2018-07-30T00:25:00.739Z,1011.96
2018-07-30T00:26:00.745Z,1011.95
2018-07-30T00:27:00.744Z,1011.98
2018-07-30T00:28:00.746Z,1011.97
2018-07-30T00:29:00.750Z,1012.00
2018-07-30T00:30:00.755Z,1012.05
2018-07-30T00:31:00.756Z,1012.03
2018-07-30T00:32:00.759Z,1012.03
2018-07-30T00:33:00.763Z,1012.10
2018-07-30T00:34:00.766Z,1012.09
2018-07-30T00:35:00.769Z,1012.10
2018-07-30T00:36:00.772Z,1012.12
2018-07-30T00:37:00.776Z,1012.11
2018-07-30T00:38:00.777Z,1012.07
2018-07-30T00:39:00.780Z,1012.10
2018-07-30T00:40:00.785Z,1012.05
2018-07-30T00:41:00.787Z,1012.09
2018-07-30T00:42:00.811Z,1012.09
2018-07-30T00:43:00.799Z,1012.07
2018-07-30T00:44:00.795Z,1012.09
2018-07-30T00:45:00.814Z,1012.11
2018-07-30T00:46:00.802Z,1012.11
2018-07-30T00:47:00.801Z,1012.12
2018-07-30T00:48:00.806Z,1012.08
2018-07-30T00:49:00.813Z,1012.15
2018-07-30T00:50:00.818Z,1012.13
2018-07-30T00:51:00.815Z,1012.12
2018-07-30T00:52:00.818Z,1012.14
2018-07-30T00:53:00.827Z,1012.11
2018-07-30T00:54:00.825Z,1012.09
2018-07-30T00:55:00.876Z,1012.08
2018-07-30T00:56:00.830Z,1012.13
2018-07-30T00:57:00.838Z,1012.14
2018-07-30T00:58:00.837Z,1012.14
2018-07-30T00:59:00.841Z,1012.11
2018-07-30T01:00:00.842Z,1012.11
2018-07-30T01:01:00.846Z,1012.14
2018-07-30T01:02:00.848Z,1012.12
2018-07-30T01:03:00.848Z,1012.14
2018-07-30T01:04:00.854Z,1012.18
2018-07-30T01:05:00.857Z,1012.17
2018-07-30T01:06:00.861Z,1012.19
2018-07-30T01:07:00.861Z,1012.20
2018-07-30T01:08:00.869Z,1012.23
2018-07-30T01:09:00.867Z,1012.20
2018-07-30T01:10:00.872Z,1012.22
2018-07-30T01:11:00.873Z,1012.22
2018-07-30T01:12:00.877Z,1012.19
2018-07-30T01:13:00.879Z,1012.19
2018-07-30T01:14:00.881Z,1012.21
2018-07-30T01:15:00.885Z,1012.18
2018-07-30T01:16:00.889Z,1012.17
2018-07-30T01:17:00.899Z,1012.15
2018-07-30T01:18:00.898Z,1012.13
2018-07-30T01:19:00.896Z,1012.16
2018-07-30T01:20:00.902Z,1012.12
2018-07-30T01:21:00.901Z,1012.15
2018-07-30T01:22:00.913Z,1012.08
2018-07-30T01:23:00.908Z,1012.09
2018-07-30T01:24:00.915Z,1012.08
2018-07-30T01:25:00.913Z,1012.08
2018-07-30T01:26:00.916Z,1012.10
2018-07-30T01:27:00.918Z,1012.08
2018-07-30T01:28:00.920Z,1012.11
2018-07-30T01:29:00.926Z,1012.09
2018-07-30T01:30:00.929Z,1012.06
2018-07-30T01:31:00.931Z,1012.07
2018-07-30T01:32:00.933Z,1012.09
2018-07-30T01:33:00.933Z,1012.11
2018-07-30T01:34:00.942Z,1012.12
2018-07-30T01:35:00.951Z,1012.16
2018-07-30T01:36:00.952Z,1012.21
2018-07-30T01:37:00.948Z,1012.20
2018-07-30T01:38:00.951Z,1012.22
2018-07-30T01:39:00.954Z,1012.23
2018-07-30T01:40:00.957Z,1012.27
2018-07-30T01:41:00.960Z,1012.27
2018-07-30T01:42:00.963Z,1012.26
2018-07-30T01:43:00.968Z,1012.26
2018-07-30T01:44:00.968Z,1012.27
2018-07-30T01:45:00.996Z,1012.24
2018-07-30T01:46:00.975Z,1012.27
2018-07-30T01:47:00.979Z,1012.22
2018-07-30T01:48:00.982Z,1012.25
2018-07-30T01:49:00.986Z,1012.23
2018-07-30T01:50:00.993Z,1012.21
2018-07-30T01:51:00.991Z,1012.19
2018-07-30T01:52:00.992Z,1012.20
2018-07-30T01:53:00.996Z,1012.18
2018-07-30T01:54:01.004Z,1012.16
2018-07-30T01:55:01.002Z,1012.15
2018-07-30T01:56:01.005Z,1012.17
2018-07-30T01:57:01.006Z,1012.10
2018-07-30T01:58:01.011Z,1012.08
2018-07-30T01:59:01.017Z,1012.11
2018-07-30T02:00:01.017Z,1012.07
2018-07-30T02:01:01.017Z,1012.07
2018-07-30T02:02:01.023Z,1012.08
2018-07-30T02:03:01.027Z,1012.04
2018-07-30T02:04:01.029Z,1012.06
2018-07-30T02:05:01.032Z,1012.03
2018-07-30T02:06:01.036Z,1012.02
2018-07-30T02:07:01.040Z,1012.01
2018-07-30T02:08:01.040Z,1012.05
2018-07-30T02:09:01.048Z,1012.07
2018-07-30T02:10:01.046Z,1012.06
2018-07-30T02:11:01.094Z,1012.06
2018-07-30T02:12:01.052Z,1012.05
2018-07-30T02:13:01.055Z,1012.06
2018-07-30T02:14:01.063Z,1012.08
2018-07-30T02:15:01.059Z,1012.11
2018-07-30T02:16:01.066Z,1012.10
2018-07-30T02:17:01.067Z,1012.16
2018-07-30T02:18:01.069Z,1012.14
2018-07-30T02:19:01.071Z,1012.17
2018-07-30T02:20:01.072Z,1012.13
2018-07-30T02:21:01.076Z,1012.20
2018-07-30T02:22:01.085Z,1012.18
2018-07-30T02:23:01.083Z,1012.17
2018-07-30T02:24:01.087Z,1012.14
2018-07-30T02:25:01.090Z,1012.17
2018-07-30T02:26:01.094Z,1012.18
2018-07-30T02:27:01.093Z,1012.16
2018-07-30T02:28:01.101Z,1012.16
2018-07-30T02:29:01.099Z,1012.16
2018-07-30T02:30:01.102Z,1012.15
2018-07-30T02:31:01.105Z,1012.14
2018-07-30T02:32:01.109Z,1012.14
2018-07-30T02:33:01.112Z,1012.16
2018-07-30T02:34:01.113Z,1012.14
2018-07-30T02:35:01.115Z,1012.18
2018-07-30T02:36:01.122Z,1012.14
2018-07-30T02:37:01.125Z,1012.16
2018-07-30T02:38:01.124Z,1012.16
2018-07-30T02:39:01.125Z,1012.15
2018-07-30T02:40:01.130Z,1012.15
2018-07-30T02:41:01.133Z,1012.14
2018-07-30T02:42:01.138Z,1012.17
2018-07-30T02:43:01.140Z,1012.14
2018-07-30T02:44:01.144Z,1012.20
2018-07-30T02:45:01.151Z,1012.18
2018-07-30T02:46:01.149Z,1012.22
2018-07-30T02:47:01.165Z,1012.22
2018-07-30T02:48:01.178Z,1012.20
2018-07-30T02:49:01.158Z,1012.20
2018-07-30T02:50:01.159Z,1012.23
2018-07-30T02:51:01.161Z,1012.26
2018-07-30T02:52:01.165Z,1012.24
2018-07-30T02:53:01.169Z,1012.24
2018-07-30T02:54:01.168Z,1012.26
2018-07-30T02:55:01.174Z,1012.24
2018-07-30T02:56:01.176Z,1012.22
2018-07-30T02:57:01.181Z,1012.23
2018-07-30T02:58:01.184Z,1012.21
2018-07-30T02:59:01.185Z,1012.21
2018-07-30T03:00:01.186Z,1012.24
2018-07-30T03:01:01.191Z,1012.24
2018-07-30T03:02:01.190Z,1012.23
2018-07-30T03:03:01.199Z,1012.27
2018-07-30T03:04:01.199Z,1012.24
2018-07-30T03:05:01.203Z,1012.27
2018-07-30T03:06:01.203Z,1012.28
2018-07-30T03:07:01.210Z,1012.31
2018-07-30T03:08:01.211Z,1012.29
2018-07-30T03:09:01.213Z,1012.31
2018-07-30T03:10:01.217Z,1012.30
2018-07-30T03:11:01.220Z,1012.31
2018-07-30T03:12:01.224Z,1012.33
2018-07-30T03:13:01.226Z,1012.33
2018-07-30T03:14:01.227Z,1012.36
2018-07-30T03:15:01.313Z,1012.34
2018-07-30T03:16:01.236Z,1012.31
2018-07-30T03:17:01.241Z,1012.35
2018-07-30T03:18:01.239Z,1012.32
2018-07-30T03:19:01.241Z,1012.36
2018-07-30T03:20:01.244Z,1012.36
2018-07-30T03:21:01.249Z,1012.36
2018-07-30T03:22:01.250Z,1012.36
2018-07-30T03:23:01.252Z,1012.39
2018-07-30T03:24:01.256Z,1012.37
2018-07-30T03:25:01.258Z,1012.39
2018-07-30T03:26:01.258Z,1012.35
2018-07-30T03:27:01.266Z,1012.38
2018-07-30T03:28:01.271Z,1012.39
2018-07-30T03:29:01.274Z,1012.40
2018-07-30T03:30:01.274Z,1012.39
2018-07-30T03:31:01.289Z,1012.35
2018-07-30T03:32:01.279Z,1012.40
2018-07-30T03:33:01.284Z,1012.38
2018-07-30T03:34:01.285Z,1012.43
2018-07-30T03:35:01.295Z,1012.43
2018-07-30T03:36:01.292Z,1012.41
2018-07-30T03:37:01.293Z,1012.40
2018-07-30T03:38:01.300Z,1012.42
2018-07-30T03:39:01.300Z,1012.41
2018-07-30T03:40:01.298Z,1012.40
2018-07-30T03:41:01.305Z,1012.39
2018-07-30T03:42:01.318Z,1012.38
2018-07-30T03:43:01.316Z,1012.34
2018-07-30T03:44:01.315Z,1012.34
2018-07-30T03:45:01.320Z,1012.38
2018-07-30T03:46:01.362Z,1012.35
2018-07-30T03:47:01.359Z,1012.34
2018-07-30T03:48:01.332Z,1012.34
2018-07-30T03:49:01.330Z,1012.33
2018-07-30T03:50:01.333Z,1012.32
2018-07-30T03:51:01.335Z,1012.29
2018-07-30T03:52:01.339Z,1012.30
2018-07-30T03:53:01.343Z,1012.27
2018-07-30T03:54:01.346Z,1012.26
2018-07-30T03:55:01.347Z,1012.28
2018-07-30T03:56:01.351Z,1012.27
2018-07-30T03:57:01.358Z,1012.27
2018-07-30T03:58:01.405Z,1012.27
2018-07-30T03:59:01.360Z,1012.26
2018-07-30T04:00:01.393Z,1012.27
2018-07-30T04:01:01.365Z,1012.30
2018-07-30T04:02:01.371Z,1012.28
2018-07-30T04:03:01.372Z,1012.28
2018-07-30T04:04:01.382Z,1012.31
2018-07-30T04:05:01.380Z,1012.30
2018-07-30T04:06:01.390Z,1012.30
2018-07-30T04:07:01.386Z,1012.34
2018-07-30T04:08:01.465Z,1012.35
2018-07-30T04:09:01.392Z,1012.31
2018-07-30T04:10:01.395Z,1012.32
2018-07-30T04:11:01.402Z,1012.34
2018-07-30T04:12:01.405Z,1012.35
2018-07-30T04:13:01.407Z,1012.36
2018-07-30T04:14:01.408Z,1012.38
2018-07-30T04:15:01.412Z,1012.36
2018-07-30T04:16:01.415Z,1012.41
2018-07-30T04:17:01.419Z,1012.37
2018-07-30T04:18:01.421Z,1012.38
2018-07-30T04:19:01.426Z,1012.39
2018-07-30T04:20:01.425Z,1012.35
2018-07-30T04:21:01.429Z,1012.39
2018-07-30T04:22:01.487Z,1012.40
2018-07-30T04:23:01.439Z,1012.40
2018-07-30T04:24:01.444Z,1012.43
2018-07-30T04:25:01.451Z,1012.39
2018-07-30T04:26:01.449Z,1012.41
2018-07-30T04:27:01.449Z,1012.41
2018-07-30T04:28:01.455Z,1012.39
2018-07-30T04:29:01.460Z,1012.38
2018-07-30T04:30:01.461Z,1012.34
2018-07-30T04:31:01.463Z,1012.34
2018-07-30T04:32:01.475Z,1012.37
2018-07-30T04:33:01.473Z,1012.38
2018-07-30T04:34:01.471Z,1012.38
2018-07-30T04:35:01.476Z,1012.37
2018-07-30T04:36:01.480Z,1012.35
2018-07-30T04:37:01.485Z,1012.38
2018-07-30T04:38:01.490Z,1012.39
2018-07-30T04:39:01.493Z,1012.44
2018-07-30T04:40:01.500Z,1012.40
2018-07-30T04:41:01.504Z,1012.44
2018-07-30T04:42:01.502Z,1012.46
2018-07-30T04:43:01.518Z,1012.43
2018-07-30T04:44:01.509Z,1012.42
2018-07-30T04:45:01.510Z,1012.42
2018-07-30T04:46:01.516Z,1012.45
2018-07-30T04:47:01.521Z,1012.42
2018-07-30T04:48:01.550Z,1012.46
2018-07-30T04:49:01.526Z,1012.41
2018-07-30T04:50:01.531Z,1012.43
2018-07-30T04:51:01.533Z,1012.43
2018-07-30T04:52:01.535Z,1012.39
2018-07-30T04:53:01.541Z,1012.40
2018-07-30T04:54:01.546Z,1012.42
2018-07-30T04:55:01.547Z,1012.38
2018-07-30T04:56:01.553Z,1012.39
2018-07-30T04:57:01.572Z,1012.39
2018-07-30T04:58:01.570Z,1012.38
2018-07-30T04:59:01.563Z,1012.36
2018-07-30T05:00:01.564Z,1012.37
2018-07-30T05:01:01.566Z,1012.40
2018-07-30T05:02:01.568Z,1012.37
2018-07-30T05:03:01.575Z,1012.38
2018-07-30T05:04:01.578Z,1012.35
2018-07-30T05:05:01.579Z,1012.39
2018-07-30T05:06:01.589Z,1012.34
2018-07-30T05:07:01.590Z,1012.35
2018-07-30T05:08:01.595Z,1012.34
2018-07-30T05:09:01.609Z,1012.34
2018-07-30T05:10:01.614Z,1012.35
2018-07-30T05:11:01.606Z,1012.35
2018-07-30T05:12:01.608Z,1012.33
2018-07-30T05:13:01.615Z,1012.35
2018-07-30T05:14:01.616Z,1012.36
2018-07-30T05:15:01.632Z,1012.33
2018-07-30T05:16:01.627Z,1012.34
2018-07-30T05:17:01.626Z,1012.37
2018-07-30T05:18:01.630Z,1012.40
2018-07-30T05:19:01.632Z,1012.48
2018-07-30T05:20:01.639Z,1012.45
2018-07-30T05:21:01.644Z,1012.47
2018-07-30T05:22:01.644Z,1012.47
2018-07-30T05:23:01.655Z,1012.55
2018-07-30T05:24:01.651Z,1012.56
2018-07-30T05:25:01.657Z,1012.57
2018-07-30T05:26:01.662Z,1012.58
2018-07-30T05:27:01.662Z,1012.51
2018-07-30T05:28:01.671Z,1012.54
2018-07-30T05:29:01.673Z,1012.52
2018-07-30T05:30:01.700Z,1012.54
2018-07-30T05:31:01.681Z,1012.53
2018-07-30T05:32:01.686Z,1012.53
2018-07-30T05:33:01.686Z,1012.52
2018-07-30T05:34:01.693Z,1012.53
2018-07-30T05:35:01.696Z,1012.52
2018-07-30T05:36:01.704Z,1012.57
2018-07-30T05:37:01.706Z,1012.56
2018-07-30T05:38:01.715Z,1012.55
2018-07-30T05:39:01.718Z,1012.58
2018-07-30T05:40:01.719Z,1012.57
2018-07-30T05:41:01.724Z,1012.53
2018-07-30T05:42:01.729Z,1012.55
2018-07-30T05:43:01.731Z,1012.55
2018-07-30T05:44:01.737Z,1012.55
2018-07-30T05:45:01.745Z,1012.55
2018-07-30T05:46:01.748Z,1012.50
2018-07-30T05:47:01.747Z,1012.49
2018-07-30T05:48:01.753Z,1012.51
2018-07-30T05:49:01.759Z,1012.53
2018-07-30T05:50:01.791Z,1012.53
2018-07-30T05:51:01.819Z,1012.56
2018-07-30T05:52:01.772Z,1012.55
2018-07-30T05:53:01.774Z,1012.60
2018-07-30T05:54:01.779Z,1012.56
2018-07-30T05:55:01.782Z,1012.58
2018-07-30T05:56:01.786Z,1012.60
2018-07-30T05:57:01.805Z,1012.58
2018-07-30T05:58:01.790Z,1012.55
2018-07-30T05:59:01.796Z,1012.60
2018-07-30T06:00:01.802Z,1012.64
2018-07-30T06:01:01.809Z,1012.67
2018-07-30T06:02:01.851Z,1012.64
2018-07-30T06:03:01.822Z,1012.67
2018-07-30T06:04:01.823Z,1012.68
2018-07-30T06:05:01.824Z,1012.66
2018-07-30T06:06:01.828Z,1012.73
2018-07-30T06:07:01.832Z,1012.71
2018-07-30T06:08:01.836Z,1012.75
2018-07-30T06:09:01.841Z,1012.76
2018-07-30T06:10:01.842Z,1012.79
2018-07-30T06:11:01.848Z,1012.80
2018-07-30T06:12:01.854Z,1012.80
2018-07-30T06:13:01.859Z,1012.79
2018-07-30T06:14:03.935Z,1012.78
2018-07-30T06:15:01.876Z,1012.79
2018-07-30T06:16:01.876Z,1012.82
2018-07-30T06:17:01.877Z,1012.81
2018-07-30T06:18:01.882Z,1012.82
2018-07-30T06:19:01.916Z,1012.83
2018-07-30T06:20:01.890Z,1012.81
2018-07-30T06:21:01.979Z,1012.80
2018-07-30T06:22:01.967Z,1012.80
2018-07-30T06:23:01.954Z,1012.82
2018-07-30T06:24:01.905Z,1012.83
2018-07-30T06:25:01.972Z,1012.84
2018-07-30T06:26:01.922Z,1012.86
2018-07-30T06:27:01.943Z,1012.84
2018-07-30T06:28:01.954Z,1012.84
2018-07-30T06:29:02.028Z,1012.87
2018-07-30T06:30:01.974Z,1012.87
2018-07-30T06:31:02.003Z,1012.89
2018-07-30T06:32:01.957Z,1012.86
2018-07-30T06:33:01.946Z,1012.85
2018-07-30T06:34:01.956Z,1012.86
2018-07-30T06:35:01.958Z,1012.87
2018-07-30T06:36:01.964Z,1012.87
2018-07-30T06:37:01.966Z,1012.85
2018-07-30T06:38:01.973Z,1012.86
2018-07-30T06:39:01.972Z,1012.86
2018-07-30T06:40:01.977Z,1012.84
2018-07-30T06:41:01.984Z,1012.87
2018-07-30T06:42:01.987Z,1012.88
2018-07-30T06:43:01.991Z,1012.88
2018-07-30T06:44:01.994Z,1012.88
2018-07-30T06:45:01.999Z,1012.91
2018-07-30T06:46:02.006Z,1012.91
2018-07-30T06:47:02.006Z,1012.93
2018-07-30T06:48:02.143Z,1012.96
2018-07-30T06:49:02.016Z,1012.98
2018-07-30T06:50:02.022Z,1013.00
2018-07-30T06:51:02.025Z,1013.01
2018-07-30T06:52:02.035Z,1013.02
2018-07-30T06:53:02.035Z,1013.01
2018-07-30T06:54:02.037Z,1013.04
2018-07-30T06:55:02.038Z,1013.05
2018-07-30T06:56:02.045Z,1013.09
2018-07-30T06:57:02.051Z,1013.05
2018-07-30T06:58:02.054Z,1013.10
2018-07-30T06:59:02.061Z,1013.13
2018-07-30T07:00:02.062Z,1013.14
2018-07-30T07:01:02.113Z,1013.10
2018-07-30T07:02:02.116Z,1013.11
2018-07-30T07:03:02.075Z,1013.12
2018-07-30T07:04:02.080Z,1013.11
2018-07-30T07:05:02.084Z,1013.14
2018-07-30T07:06:02.091Z,1013.16
2018-07-30T07:07:02.094Z,1013.13
2018-07-30T07:08:02.097Z,1013.11
2018-07-30T07:09:02.101Z,1013.13
2018-07-30T07:10:02.104Z,1013.09
2018-07-30T07:11:02.136Z,1013.10
2018-07-30T07:12:02.116Z,1013.15
2018-07-30T07:13:02.127Z,1013.12
2018-07-30T07:14:02.127Z,1013.13
2018-07-30T07:15:02.128Z,1013.13
2018-07-30T07:16:02.132Z,1013.16
2018-07-30T07:17:02.223Z,1013.16
2018-07-30T07:18:02.144Z,1013.14
2018-07-30T07:19:02.153Z,1013.14
2018-07-30T07:20:02.149Z,1013.15
2018-07-30T07:21:02.155Z,1013.17
2018-07-30T07:22:02.230Z,1013.18
2018-07-30T07:23:02.173Z,1013.17
2018-07-30T07:24:02.167Z,1013.22
2018-07-30T07:25:02.171Z,1013.17
2018-07-30T07:26:02.179Z,1013.20
2018-07-30T07:27:02.241Z,1013.20
2018-07-30T07:28:02.208Z,1013.22
2018-07-30T07:29:02.199Z,1013.18
2018-07-30T07:30:02.199Z,1013.25
2018-07-30T07:31:02.199Z,1013.27
2018-07-30T07:32:02.202Z,1013.30
2018-07-30T07:33:02.212Z,1013.26
2018-07-30T07:34:02.218Z,1013.26
2018-07-30T07:35:02.293Z,1013.28
2018-07-30T07:36:02.225Z,1013.27
2018-07-30T07:37:02.231Z,1013.28
2018-07-30T07:38:02.231Z,1013.30
2018-07-30T07:39:02.237Z,1013.29
2018-07-30T07:40:02.243Z,1013.32
2018-07-30T07:41:02.296Z,1013.28
2018-07-30T07:42:02.251Z,1013.30
2018-07-30T07:43:02.267Z,1013.33
2018-07-30T07:44:02.262Z,1013.34
2018-07-30T07:45:02.345Z,1013.32
2018-07-30T07:46:02.274Z,1013.34
2018-07-30T07:47:02.280Z,1013.38
2018-07-30T07:48:02.283Z,1013.35
2018-07-30T07:49:02.298Z,1013.33
2018-07-30T07:50:02.339Z,1013.31
2018-07-30T07:51:02.498Z,1013.34
2018-07-30T07:52:02.312Z,1013.35
2018-07-30T07:53:02.317Z,1013.32
2018-07-30T07:54:02.325Z,1013.33
2018-07-30T07:55:02.331Z,1013.37
2018-07-30T07:56:02.335Z,1013.37
2018-07-30T07:57:02.343Z,1013.35
2018-07-30T07:58:02.362Z,1013.35
2018-07-30T07:59:02.359Z,1013.40
2018-07-30T08:00:02.366Z,1013.39
2018-07-30T08:01:02.396Z,1013.39
2018-07-30T08:02:02.383Z,1013.37
2018-07-30T08:03:02.392Z,1013.45
2018-07-30T08:04:02.403Z,1013.44
2018-07-30T08:05:02.410Z,1013.44
2018-07-30T08:06:02.418Z,1013.44
2018-07-30T08:07:02.427Z,1013.44
2018-07-30T08:08:02.438Z,1013.46
2018-07-30T08:09:02.454Z,1013.47
2018-07-30T08:10:02.458Z,1013.47
2018-07-30T08:11:02.549Z,1013.43
2018-07-30T08:12:02.478Z,1013.38
2018-07-30T08:13:02.481Z,1013.41
2018-07-30T08:14:02.490Z,1013.46
2018-07-30T08:15:02.504Z,1013.42
2018-07-30T08:16:02.534Z,1013.46
2018-07-30T08:17:02.519Z,1013.44
2018-07-30T08:18:02.536Z,1013.46
2018-07-30T08:19:02.540Z,1013.47
2018-07-30T08:20:02.549Z,1013.48
2018-07-30T08:21:02.599Z,1013.49
2018-07-30T08:22:02.571Z,1013.50
2018-07-30T08:23:02.579Z,1013.54
2018-07-30T08:24:02.912Z,1013.48
2018-07-30T08:25:02.655Z,1013.51
2018-07-30T08:26:02.643Z,1013.52
2018-07-30T08:27:02.849Z,1013.55
2018-07-30T08:28:02.981Z,1013.58
2018-07-30T08:29:02.778Z,1013.60
2018-07-30T08:30:02.661Z,1013.61
2018-07-30T08:31:02.667Z,1013.66
2018-07-30T08:32:02.682Z,1013.65
2018-07-30T08:33:02.719Z,1013.64
2018-07-30T08:34:02.699Z,1013.69
2018-07-30T08:35:02.708Z,1013.68
2018-07-30T08:36:02.756Z,1013.67
2018-07-30T08:37:02.760Z,1013.67
2018-07-30T08:38:02.748Z,1013.69
2018-07-30T08:39:02.751Z,1013.70
2018-07-30T08:40:02.762Z,1013.61
2018-07-30T08:41:02.776Z,1013.59
2018-07-30T08:42:02.789Z,1013.63
2018-07-30T08:43:02.799Z,1013.63
2018-07-30T08:44:02.808Z,1013.62
2018-07-30T08:45:02.860Z,1013.64
2018-07-30T08:46:02.833Z,1013.63
2018-07-30T08:47:02.843Z,1013.62
2018-07-30T08:48:02.854Z,1013.63
2018-07-30T08:49:02.870Z,1013.69
2018-07-30T08:50:02.895Z,1013.65
2018-07-30T08:51:03.049Z,1013.68
2018-07-30T08:52:02.907Z,1013.65
2018-07-30T08:53:02.912Z,1013.61
2018-07-30T08:54:02.924Z,1013.62
2018-07-30T08:55:02.958Z,1013.62
2018-07-30T08:56:02.975Z,1013.63
2018-07-30T08:57:03.116Z,1013.64
2018-07-30T08:58:02.998Z,1013.65
2018-07-30T08:59:03.094Z,1013.65
2018-07-30T09:00:03.022Z,1013.60
2018-07-30T09:01:03.025Z,1013.66
2018-07-30T09:02:03.025Z,1013.64
2018-07-30T09:03:03.026Z,1013.61
2018-07-30T09:04:03.070Z,1013.47
2018-07-30T09:05:03.055Z,1013.37
2018-07-30T09:06:03.065Z,1013.40
2018-07-30T09:07:03.121Z,1013.36
2018-07-30T09:08:03.108Z,1013.40
2018-07-30T09:09:03.103Z,1013.39
2018-07-30T09:10:03.134Z,1013.38
2018-07-30T09:11:03.123Z,1013.32
2018-07-30T09:12:03.157Z,1013.37
2018-07-30T09:13:03.140Z,1013.37
2018-07-30T09:14:03.155Z,1013.38
2018-07-30T09:15:03.169Z,1013.34
2018-07-30T09:16:03.178Z,1013.33
2018-07-30T09:17:03.193Z,1013.32
2018-07-30T09:18:03.201Z,1013.35
2018-07-30T09:19:03.207Z,1013.36
2018-07-30T09:20:03.214Z,1013.38
2018-07-30T09:21:03.222Z,1013.35
2018-07-30T09:22:03.235Z,1013.36
2018-07-30T09:23:03.293Z,1013.37
2018-07-30T09:24:03.246Z,1013.37
2018-07-30T09:25:03.259Z,1013.38
2018-07-30T09:26:03.268Z,1013.36
2018-07-30T09:27:03.278Z,1013.37
2018-07-30T09:28:03.282Z,1013.36
2018-07-30T09:29:03.298Z,1013.39
2018-07-30T09:30:03.303Z,1013.40
2018-07-30T09:31:03.311Z,1013.43
2018-07-30T09:32:03.360Z,1013.38
2018-07-30T09:33:03.553Z,1013.35
2018-07-30T09:34:03.333Z,1013.35
2018-07-30T09:35:03.345Z,1013.37
2018-07-30T09:36:03.347Z,1013.36
2018-07-30T09:37:03.645Z,1013.33
2018-07-30T09:39:03.481Z,1013.28
2018-07-30T09:40:03.959Z,1013.37
2018-07-30T09:41:04.787Z,1013.33
2018-07-30T09:42:03.565Z,1013.37
2018-07-30T09:43:03.507Z,1013.36
2018-07-30T09:44:03.779Z,1013.35
2018-07-30T09:45:03.641Z,1013.42
2018-07-30T09:46:03.777Z,1013.41
2018-07-30T09:47:03.683Z,1013.38
2018-07-30T09:48:03.537Z,1013.41
2018-07-30T09:49:03.597Z,1013.38
2018-07-30T09:50:04.058Z,1013.37
2018-07-30T09:51:03.471Z,1013.32
2018-07-30T09:52:03.566Z,1013.35
2018-07-30T09:53:03.474Z,1013.39
2018-07-30T09:54:03.533Z,1013.40
2018-07-30T09:55:03.486Z,1013.33
2018-07-30T09:56:03.491Z,1013.33
2018-07-30T09:57:03.499Z,1013.39
2018-07-30T09:58:03.506Z,1013.36
2018-07-30T09:59:03.523Z,1013.32
2018-07-30T10:00:03.529Z,1013.45
2018-07-30T10:01:03.530Z,1013.36
2018-07-30T10:02:03.528Z,1013.42
2018-07-30T10:03:03.536Z,1013.37
2018-07-30T10:04:03.547Z,1013.34
2018-07-30T10:05:03.554Z,1013.34
2018-07-30T10:06:03.563Z,1013.36
2018-07-30T10:07:03.566Z,1013.31
2018-07-30T10:08:03.575Z,1013.36
2018-07-30T10:09:03.582Z,1013.32
2018-07-30T10:10:03.608Z,1013.35
2018-07-30T10:11:03.594Z,1013.36
2018-07-30T10:12:03.602Z,1013.39
2018-07-30T10:13:03.608Z,1013.33
2018-07-30T10:14:03.651Z,1013.36
2018-07-30T10:15:03.621Z,1013.31
2018-07-30T10:16:03.627Z,1013.31
2018-07-30T10:17:03.636Z,1013.33
2018-07-30T10:18:03.684Z,1013.30
2018-07-30T10:19:03.652Z,1013.29
2018-07-30T10:20:03.703Z,1013.36
2018-07-30T10:21:03.666Z,1013.34
2018-07-30T10:22:03.760Z,1013.37
2018-07-30T10:23:04.004Z,1013.33
2018-07-30T10:24:03.992Z,1013.35
2018-07-30T10:25:04.088Z,1013.38
2018-07-30T10:26:03.698Z,1013.36
2018-07-30T10:27:03.701Z,1013.31
2018-07-30T10:28:03.711Z,1013.29
2018-07-30T10:29:03.722Z,1013.26
2018-07-30T10:30:03.726Z,1013.30
2018-07-30T10:31:03.732Z,1013.30
2018-07-30T10:32:03.740Z,1013.31
2018-07-30T10:33:03.747Z,1013.30
2018-07-30T10:34:03.752Z,1013.28
2018-07-30T10:35:03.758Z,1013.28
2018-07-30T10:36:03.771Z,1013.28
2018-07-30T10:37:03.815Z,1013.29
2018-07-30T10:38:03.855Z,1013.26
2018-07-30T10:39:03.788Z,1013.29
2018-07-30T10:40:03.796Z,1013.22
2018-07-30T10:41:03.801Z,1013.27
2018-07-30T10:42:03.808Z,1013.22
2018-07-30T10:43:03.814Z,1013.21
2018-07-30T10:44:03.835Z,1013.22
2018-07-30T10:45:03.829Z,1013.24
2018-07-30T10:46:03.834Z,1013.22
2018-07-30T10:47:03.841Z,1013.26
2018-07-30T10:48:03.849Z,1013.33
2018-07-30T10:49:03.854Z,1013.25
2018-07-30T10:50:03.863Z,1013.29
2018-07-30T10:51:03.869Z,1013.24
2018-07-30T10:52:03.879Z,1013.27
2018-07-30T10:53:03.884Z,1013.23
2018-07-30T10:54:03.925Z,1013.26
2018-07-30T10:55:03.898Z,1013.26
2018-07-30T10:56:03.909Z,1013.27
2018-07-30T10:57:03.925Z,1013.30
2018-07-30T10:58:03.919Z,1013.28
2018-07-30T10:59:03.925Z,1013.26
2018-07-30T11:00:03.931Z,1013.28
2018-07-30T11:01:03.989Z,1013.29
2018-07-30T11:02:03.948Z,1013.29
2018-07-30T11:03:03.954Z,1013.27
2018-07-30T11:04:03.963Z,1013.22
2018-07-30T11:05:03.968Z,1013.23
2018-07-30T11:06:03.977Z,1013.26
2018-07-30T11:07:03.984Z,1013.24
2018-07-30T11:08:03.989Z,1013.26
2018-07-30T11:09:03.997Z,1013.25
2018-07-30T11:10:04.009Z,1013.22
2018-07-30T11:11:04.036Z,1013.22
2018-07-30T11:12:04.018Z,1013.23
2018-07-30T11:13:04.024Z,1013.23
2018-07-30T11:14:04.035Z,1013.26
2018-07-30T11:15:04.084Z,1013.23
2018-07-30T11:16:04.046Z,1013.24
2018-07-30T11:17:04.055Z,1013.27
2018-07-30T11:18:04.061Z,1013.24
2018-07-30T11:19:04.109Z,1013.25
2018-07-30T11:20:04.102Z,1013.24
2018-07-30T11:21:04.085Z,1013.23
2018-07-30T11:22:04.232Z,1013.23
2018-07-30T11:23:04.099Z,1013.21
2018-07-30T11:24:04.103Z,1013.21
2018-07-30T11:25:04.109Z,1013.21
2018-07-30T11:26:04.117Z,1013.25
2018-07-30T11:27:04.123Z,1013.18
2018-07-30T11:28:04.245Z,1013.19
2018-07-30T11:29:04.203Z,1013.19
2018-07-30T11:30:04.146Z,1013.19
2018-07-30T11:31:04.152Z,1013.17
2018-07-30T11:32:04.160Z,1013.18
2018-07-30T11:33:04.168Z,1013.14
2018-07-30T11:34:04.176Z,1013.17
2018-07-30T11:35:04.187Z,1013.19
2018-07-30T11:36:04.188Z,1013.17
2018-07-30T11:37:04.197Z,1013.11
2018-07-30T11:38:04.204Z,1013.12
2018-07-30T11:39:04.209Z,1013.17
2018-07-30T11:40:04.217Z,1013.17
2018-07-30T11:41:04.226Z,1013.14
2018-07-30T11:42:04.233Z,1013.16
2018-07-30T11:43:04.239Z,1013.12
2018-07-30T11:44:04.246Z,1013.09
2018-07-30T11:45:04.254Z,1013.08
2018-07-30T11:46:04.260Z,1013.09
2018-07-30T11:47:04.267Z,1013.06
2018-07-30T11:48:04.277Z,1013.11
2018-07-30T11:49:04.284Z,1013.05
2018-07-30T11:50:04.385Z,1013.06
2018-07-30T11:51:04.296Z,1013.06
2018-07-30T11:52:04.305Z,1013.04
2018-07-30T11:53:04.311Z,1013.05
2018-07-30T11:54:04.374Z,1013.04
2018-07-30T11:55:04.325Z,1013.01
2018-07-30T11:56:04.371Z,1013.02
2018-07-30T11:57:04.342Z,1013.03
2018-07-30T11:58:04.359Z,1013.03
2018-07-30T11:59:04.357Z,1013.00
2018-07-30T12:00:04.364Z,1012.99
2018-07-30T12:01:04.417Z,1013.00
2018-07-30T12:02:04.398Z,1013.04
2018-07-30T12:03:04.387Z,1013.05
2018-07-30T12:04:04.394Z,1013.05
2018-07-30T12:05:04.405Z,1013.03
2018-07-30T12:06:04.412Z,1013.06